Time;durP1;ratioP1;P1;durP2;ratioP2;P2;SDS_P1;SDS_P2;PMS_P1;PMS_P2;Temp;Humidity;BMP_temperature;BMP_pressure;BME280_temperature;BME280_humidity;BME280_pressure;Samples;Min_cycle;Max_cycle;Signal;HPM_P1;HPM_P2
2024/02/23 00:01:57;;;;;;;12.87;7.63;;;9.90;99.90;;;;;;4994712;28;20312;-66
2024/02/23 00:04:24;;;;;;;14.37;9.23;;;9.90;99.90;;;;;;5009049;28;20258;-67
2024/02/23 00:06:53;;;;;;;13.27;8.27;;;9.90;99.90;;;;;;5011183;28;20203;-67
2024/02/23 00:09:20;;;;;;;15.03;8.37;;;10.00;99.90;;;;;;5011865;28;20199;-68
2024/02/23 00:11:49;;;;;;;13.30;7.90;;;9.90;99.90;;;;;;5016209;28;20293;-66
2024/02/23 00:14:18;;;;;;;12.40;7.77;;;9.90;99.90;;;;;;5012966;28;20246;-67
2024/02/23 00:16:45;;;;;;;14.20;8.27;;;9.90;99.90;;;;;;5011600;28;20199;-67
2024/02/23 00:19:12;;;;;;;16.80;9.20;;;10.00;99.90;;;;;;5005747;28;20601;-67
2024/02/23 00:21:39;;;;;;;16.17;9.23;;;10.00;99.90;;;;;;5010865;28;20283;-66
2024/02/23 00:24:08;;;;;;;15.67;8.60;;;10.00;99.90;;;;;;5010208;28;20217;-66
2024/02/23 00:26:35;;;;;;;16.93;9.20;;;10.00;99.90;;;;;;4993567;28;20191;-67
2024/02/23 00:29:03;;;;;;;14.57;8.60;;;9.90;99.90;;;;;;5008978;28;20317;-67
2024/02/23 00:31:30;;;;;;;11.17;7.40;;;9.90;99.90;;;;;;5015023;28;20191;-67
2024/02/23 00:33:57;;;;;;;16.67;8.93;;;9.90;99.90;;;;;;5009371;28;20250;-65
2024/02/23 00:36:25;;;;;;;17.80;9.60;;;9.90;99.90;;;;;;5021241;28;20202;-67
2024/02/23 00:38:52;;;;;;;19.60;9.03;;;9.90;99.90;;;;;;5011451;28;20624;-67
2024/02/23 00:41:20;;;;;;;15.93;8.37;;;9.80;99.90;;;;;;5020432;28;20198;-67
2024/02/23 00:43:47;;;;;;;15.07;9.03;;;9.80;99.90;;;;;;5008854;28;20225;-67
2024/02/23 00:46:14;;;;;;;12.00;7.50;;;9.80;99.90;;;;;;5006389;28;20191;-66
2024/02/23 00:48:41;;;;;;;12.40;7.63;;;9.90;99.90;;;;;;5014468;28;20234;-66
2024/02/23 00:51:08;;;;;;;12.90;8.07;;;9.90;99.90;;;;;;5014474;28;20194;-66
2024/02/23 00:53:35;;;;;;;12.67;8.47;;;9.90;99.90;;;;;;5013759;28;20245;-67
2024/02/23 00:56:03;;;;;;;14.90;8.10;;;10.00;99.90;;;;;;5010748;28;20196;-66
2024/02/23 00:58:31;;;;;;;13.83;8.20;;;10.00;99.90;;;;;;5000052;28;20202;-67
2024/02/23 01:00:58;;;;;;;14.87;8.37;;;10.00;99.90;;;;;;5011579;28;20614;-67
2024/02/23 01:03:25;;;;;;;14.03;7.37;;;10.00;99.90;;;;;;5018080;28;20567;-67
2024/02/23 01:05:52;;;;;;;14.17;8.27;;;10.00;99.90;;;;;;5010383;28;20653;-66
2024/02/23 01:08:20;;;;;;;12.17;7.43;;;10.00;99.90;;;;;;5019488;28;20203;-67
2024/02/23 01:10:47;;;;;;;13.23;7.60;;;10.00;99.90;;;;;;5013309;28;20199;-67
2024/02/23 01:13:14;;;;;;;11.97;7.20;;;10.00;99.90;;;;;;5012328;28;20602;-67
2024/02/23 01:15:43;;;;;;;13.83;7.03;;;10.00;99.90;;;;;;5010531;28;20199;-67
2024/02/23 01:18:10;;;;;;;12.07;7.50;;;10.10;99.90;;;;;;5017078;28;20240;-67
2024/02/23 01:20:37;;;;;;;13.10;7.77;;;10.10;99.90;;;;;;5019224;28;20293;-67
2024/02/23 01:23:05;;;;;;;12.90;7.87;;;10.10;99.90;;;;;;4987462;28;20217;-66
2024/02/23 01:25:34;;;;;;;13.47;8.20;;;10.10;99.90;;;;;;5010337;28;20250;-67
2024/02/23 01:28:01;;;;;;;14.67;7.83;;;10.10;99.90;;;;;;4995175;28;20721;-67
2024/02/23 01:30:30;;;;;;;12.90;7.60;;;10.10;99.90;;;;;;4992512;28;20297;-66
2024/02/23 01:32:58;;;;;;;13.60;8.10;;;10.10;99.90;;;;;;5011942;28;20612;-66
2024/02/23 01:35:25;;;;;;;11.40;7.00;;;10.10;99.90;;;;;;5009058;28;20234;-67
2024/02/23 01:37:52;;;;;;;15.63;7.73;;;10.10;99.90;;;;;;5011405;28;20560;-66
2024/02/23 01:40:20;;;;;;;13.90;7.37;;;10.10;99.90;;;;;;5011631;28;20241;-66
2024/02/23 01:42:47;;;;;;;11.10;7.13;;;10.10;99.90;;;;;;5014695;28;20302;-67
2024/02/23 01:45:14;;;;;;;13.70;7.90;;;10.10;99.90;;;;;;5015347;28;20555;-68
2024/02/23 01:47:41;;;;;;;12.07;7.80;;;10.10;99.90;;;;;;5013926;28;20268;-67
2024/02/23 01:50:12;;;;;;;11.57;7.70;;;10.10;99.90;;;;;;5013591;28;20191;-67
2024/02/23 01:52:39;;;;;;;10.57;7.30;;;10.00;99.90;;;;;;5014783;28;20556;-66
2024/02/23 01:55:07;;;;;;;11.70;7.30;;;10.00;99.90;;;;;;5013023;28;20264;-67
2024/02/23 01:57:35;;;;;;;11.57;7.70;;;10.00;99.90;;;;;;5017765;28;20286;-67
2024/02/23 02:00:02;;;;;;;12.37;7.00;;;10.00;99.90;;;;;;5013817;28;20209;-67
2024/02/23 02:02:31;;;;;;;12.60;7.77;;;10.00;99.90;;;;;;5015495;28;20308;-67
2024/02/23 02:04:58;;;;;;;14.07;7.23;;;10.10;99.90;;;;;;5011447;28;20601;-65
2024/02/23 02:07:27;;;;;;;11.20;7.43;;;10.00;99.90;;;;;;5012225;28;20194;-66
2024/02/23 02:09:55;;;;;;;11.17;7.63;;;10.10;99.90;;;;;;5013820;28;20210;-67
2024/02/23 02:12:28;;;;;;;12.60;8.00;;;10.00;99.90;;;;;;5015465;28;20341;-67
2024/02/23 02:14:55;;;;;;;10.83;7.23;;;10.10;99.90;;;;;;5020952;28;20554;-66
2024/02/23 02:17:22;;;;;;;9.03;6.13;;;10.10;99.90;;;;;;5011323;28;20204;-67
2024/02/23 02:19:49;;;;;;;11.70;7.60;;;10.10;99.90;;;;;;5021042;28;20208;-67
2024/02/23 02:22:16;;;;;;;11.30;7.77;;;10.10;99.90;;;;;;5020263;28;20237;-67
2024/02/23 02:24:46;;;;;;;11.43;7.13;;;10.10;99.90;;;;;;5012694;28;20286;-66
2024/02/23 02:27:13;;;;;;;13.93;7.77;;;10.10;99.90;;;;;;5021595;28;20202;-67
2024/02/23 02:29:40;;;;;;;9.90;6.80;;;10.10;99.90;;;;;;5013106;28;20213;-67
2024/02/23 02:32:08;;;;;;;12.53;7.47;;;10.10;99.90;;;;;;5006195;28;20206;-67
2024/02/23 02:34:36;;;;;;;13.63;7.77;;;10.10;99.90;;;;;;5014983;28;20670;-66
2024/02/23 02:37:03;;;;;;;14.87;7.57;;;10.10;99.90;;;;;;4997701;28;20617;-66
2024/02/23 02:39:30;;;;;;;10.47;7.03;;;10.10;99.90;;;;;;5020112;28;20213;-67
2024/02/23 02:41:58;;;;;;;12.43;7.90;;;10.10;99.90;;;;;;5015474;28;20596;-67
2024/02/23 02:44:26;;;;;;;13.33;8.07;;;10.10;99.90;;;;;;5011578;28;20706;-67
2024/02/23 02:46:53;;;;;;;9.30;6.40;;;10.10;99.90;;;;;;5014082;28;20198;-67
2024/02/23 02:49:20;;;;;;;13.07;7.30;;;10.10;99.90;;;;;;5011914;28;20718;-67
2024/02/23 02:51:47;;;;;;;12.30;7.57;;;10.10;99.90;;;;;;4996236;28;20234;-67
2024/02/23 02:54:14;;;;;;;13.33;7.87;;;10.10;99.90;;;;;;5021063;28;20273;-67
2024/02/23 02:56:43;;;;;;;9.60;6.40;;;10.10;99.90;;;;;;5009367;28;20203;-66
2024/02/23 02:59:11;;;;;;;8.77;6.70;;;10.10;99.90;;;;;;5020530;28;20195;-67
2024/02/23 03:01:39;;;;;;;10.73;7.40;;;10.10;99.90;;;;;;5012176;28;20258;-67
2024/02/23 03:04:06;;;;;;;11.43;7.43;;;10.10;99.90;;;;;;5017705;28;20705;-67
2024/02/23 03:06:33;;;;;;;12.37;7.50;;;10.10;99.90;;;;;;4986105;28;20621;-67
2024/02/23 03:09:00;;;;;;;10.77;7.53;;;10.10;99.90;;;;;;5017842;28;20203;-67
2024/02/23 03:11:27;;;;;;;13.03;7.83;;;10.20;99.90;;;;;;5025969;28;20210;-66
2024/02/23 03:13:54;;;;;;;11.33;7.17;;;10.20;99.90;;;;;;5002319;28;20225;-67
2024/02/23 03:16:25;;;;;;;9.50;6.93;;;10.20;99.90;;;;;;5022804;28;20275;-67
2024/02/23 03:18:54;;;;;;;14.13;7.03;;;10.20;99.90;;;;;;5013418;28;20206;-66
2024/02/23 03:21:21;;;;;;;12.13;6.93;;;10.20;99.90;;;;;;5013239;28;20197;-66
2024/02/23 03:23:48;;;;;;;11.57;7.53;;;10.20;99.90;;;;;;4996733;28;20627;-67
2024/02/23 03:26:16;;;;;;;10.80;7.23;;;10.20;99.90;;;;;;5013776;28;20677;-66
2024/02/23 03:28:43;;;;;;;11.57;7.17;;;10.20;99.90;;;;;;5012173;28;20199;-66
2024/02/23 03:31:10;;;;;;;10.40;6.90;;;10.20;99.90;;;;;;5013255;28;20221;-67
2024/02/23 03:33:38;;;;;;;10.23;6.67;;;10.20;99.90;;;;;;5011984;28;20275;-67
2024/02/23 03:36:06;;;;;;;11.70;7.20;;;10.20;99.90;;;;;;5013521;28;20701;-66
2024/02/23 03:38:33;;;;;;;11.07;7.30;;;10.20;99.90;;;;;;5025935;28;20612;-66
2024/02/23 03:41:01;;;;;;;10.93;7.13;;;10.20;99.90;;;;;;5017320;28;20673;-66
2024/02/23 03:43:28;;;;;;;12.80;8.10;;;10.20;99.90;;;;;;4996617;28;20679;-65
2024/02/23 03:45:55;;;;;;;13.87;7.20;;;10.20;99.90;;;;;;5009715;28;20223;-65
2024/02/23 03:48:22;;;;;;;9.10;6.27;;;10.20;99.90;;;;;;4993689;28;20401;-65
2024/02/23 03:50:50;;;;;;;10.93;6.70;;;10.20;99.90;;;;;;5012685;28;20723;-66
2024/02/23 03:53:17;;;;;;;10.47;6.60;;;10.30;99.90;;;;;;5017311;28;20190;-66
2024/02/23 03:55:44;;;;;;;11.83;6.47;;;10.30;99.90;;;;;;5017468;28;20233;-66
2024/02/23 03:58:11;;;;;;;8.23;6.20;;;10.30;99.90;;;;;;5013312;28;20237;-66
2024/02/23 04:00:39;;;;;;;10.90;6.13;;;10.30;99.90;;;;;;5019545;28;20544;-67
2024/02/23 04:03:06;;;;;;;8.47;6.30;;;10.40;99.90;;;;;;5013849;28;20242;-67
2024/02/23 04:05:33;;;;;;;11.23;6.47;;;10.40;99.90;;;;;;5023247;28;20567;-66
2024/02/23 04:08:01;;;;;;;10.83;6.53;;;10.40;99.90;;;;;;5014298;28;20685;-65
2024/02/23 04:10:28;;;;;;;13.27;7.27;;;10.40;99.90;;;;;;5018172;28;20725;-65
2024/02/23 04:12:55;;;;;;;10.60;6.37;;;10.40;99.90;;;;;;4992170;28;20207;-65
2024/02/23 04:15:23;;;;;;;8.93;6.67;;;10.40;99.90;;;;;;5015221;28;20208;-66
2024/02/23 04:17:50;;;;;;;14.83;7.63;;;10.40;99.90;;;;;;5012200;28;20634;-68
2024/02/23 04:20:17;;;;;;;10.30;6.90;;;10.40;99.90;;;;;;5011999;28;20249;-66
2024/02/23 04:22:45;;;;;;;11.50;6.20;;;10.40;99.90;;;;;;5006478;28;20253;-67
2024/02/23 04:25:13;;;;;;;8.70;6.23;;;10.40;99.90;;;;;;5016582;28;20207;-67
2024/02/23 04:27:40;;;;;;;8.73;6.03;;;10.40;99.90;;;;;;5011656;28;20237;-67
2024/02/23 04:30:08;;;;;;;8.87;6.30;;;10.50;99.90;;;;;;5015620;28;20215;-67
2024/02/23 04:32:35;;;;;;;8.50;6.00;;;10.50;99.90;;;;;;5012082;28;20203;-67
2024/02/23 04:35:02;;;;;;;11.00;6.40;;;10.50;99.90;;;;;;5019278;28;20200;-67
2024/02/23 04:37:29;;;;;;;9.87;6.30;;;10.50;99.90;;;;;;5011439;28;20195;-67
2024/02/23 04:39:56;;;;;;;9.23;6.00;;;10.50;99.90;;;;;;5012660;28;20283;-67
2024/02/23 04:42:25;;;;;;;8.70;5.93;;;10.50;99.90;;;;;;5009474;28;20205;-66
2024/02/23 04:44:54;;;;;;;9.40;5.83;;;10.50;99.90;;;;;;5010734;28;20273;-68
2024/02/23 04:47:21;;;;;;;6.73;5.30;;;10.50;99.90;;;;;;5011658;28;20270;-67
2024/02/23 04:49:49;;;;;;;9.93;5.93;;;10.50;99.90;;;;;;5012516;28;20199;-67
2024/02/23 04:52:16;;;;;;;8.27;5.83;;;10.50;99.90;;;;;;5011631;28;20215;-67
2024/02/23 04:54:43;;;;;;;7.40;5.53;;;10.50;99.90;;;;;;5011161;28;20233;-67
2024/02/23 04:57:10;;;;;;;9.97;6.00;;;10.60;99.90;;;;;;5010566;28;20205;-67
2024/02/23 04:59:39;;;;;;;8.17;5.73;;;10.60;99.90;;;;;;5009788;28;20253;-67
2024/02/23 05:02:06;;;;;;;9.67;6.40;;;10.60;99.90;;;;;;5011689;28;20191;-67
2024/02/23 05:04:33;;;;;;;7.87;5.37;;;10.60;99.90;;;;;;5017560;28;20652;-67
2024/02/23 05:07:01;;;;;;;7.83;5.07;;;10.60;99.90;;;;;;4990844;28;20199;-67
2024/02/23 05:09:28;;;;;;;7.00;5.33;;;10.60;99.90;;;;;;5016400;28;20200;-68
2024/02/23 05:11:56;;;;;;;6.70;5.17;;;10.70;99.90;;;;;;5010564;28;20192;-67
2024/02/23 05:14:23;;;;;;;11.47;6.73;;;10.70;99.90;;;;;;5013861;28;20277;-67
2024/02/23 05:16:51;;;;;;;12.50;6.80;;;10.70;99.90;;;;;;5016122;28;20190;-67
2024/02/23 05:19:18;;;;;;;9.63;6.73;;;10.70;99.90;;;;;;5016759;28;20228;-67
2024/02/23 05:21:45;;;;;;;8.97;6.13;;;10.70;99.90;;;;;;5009669;28;20201;-67
2024/02/23 05:24:12;;;;;;;10.93;6.70;;;10.70;99.90;;;;;;5013528;28;20278;-67
2024/02/23 05:26:39;;;;;;;11.17;6.57;;;10.70;99.90;;;;;;5011217;28;20237;-67
2024/02/23 05:29:06;;;;;;;10.73;7.00;;;10.70;99.90;;;;;;5011292;28;20282;-67
2024/02/23 05:31:49;;;;;;;12.70;7.37;;;10.70;99.90;;;;;;5017164;28;20202;-67
2024/02/23 05:34:18;;;;;;;13.77;7.33;;;10.70;99.90;;;;;;5011419;28;20642;-67
2024/02/23 05:36:46;;;;;;;10.80;7.47;;;10.70;99.90;;;;;;5009786;28;20675;-66
2024/02/23 05:39:15;;;;;;;12.90;7.73;;;10.70;99.90;;;;;;5008910;28;20252;-66
2024/02/23 05:41:42;;;;;;;9.60;6.77;;;10.70;99.90;;;;;;5014369;28;20749;-67
2024/02/23 05:44:10;;;;;;;11.60;6.87;;;10.70;99.90;;;;;;5010770;28;20689;-66
2024/02/23 05:46:37;;;;;;;11.03;7.30;;;10.70;99.90;;;;;;5011850;28;20237;-66
2024/02/23 05:49:05;;;;;;;11.23;7.00;;;10.70;99.90;;;;;;5009085;28;20277;-66
2024/02/23 05:51:33;;;;;;;10.50;6.40;;;10.70;99.90;;;;;;5011158;28;20230;-66
2024/02/23 05:54:00;;;;;;;10.47;5.83;;;10.80;99.90;;;;;;5010728;28;20187;-67
2024/02/23 05:56:27;;;;;;;8.13;6.43;;;10.70;99.90;;;;;;5017269;28;20283;-66
2024/02/23 05:58:55;;;;;;;7.87;5.63;;;10.70;99.90;;;;;;4990582;28;20202;-65
2024/02/23 06:01:22;;;;;;;8.03;5.77;;;10.70;99.90;;;;;;5008772;28;20238;-65
2024/02/23 06:03:49;;;;;;;12.40;6.07;;;10.80;99.90;;;;;;5012885;28;20218;-66
2024/02/23 06:06:16;;;;;;;9.47;5.83;;;10.80;99.90;;;;;;5009003;28;20202;-66
2024/02/23 06:08:46;;;;;;;6.97;5.60;;;10.70;99.90;;;;;;5003598;28;20281;-67
2024/02/23 06:11:13;;;;;;;9.80;6.47;;;10.70;99.90;;;;;;5000853;28;20270;-66
2024/02/23 06:13:40;;;;;;;9.27;6.20;;;10.80;99.90;;;;;;5006399;28;20215;-66
2024/02/23 06:16:11;;;;;;;7.23;5.50;;;10.80;99.90;;;;;;5005682;28;20195;-66
2024/02/23 06:18:40;;;;;;;8.33;5.67;;;10.80;99.90;;;;;;5013330;28;20211;-66
2024/02/23 06:21:13;;;;;;;8.20;5.57;;;10.80;99.90;;;;;;5007698;28;20203;-66
2024/02/23 06:23:41;;;;;;;7.70;5.27;;;10.80;99.90;;;;;;4998270;28;20276;-66
2024/02/23 06:26:09;;;;;;;8.57;5.63;;;10.80;99.90;;;;;;5005825;28;20195;-66
2024/02/23 06:28:38;;;;;;;6.97;5.20;;;10.90;99.90;;;;;;5003641;28;20255;-66
2024/02/23 06:31:05;;;;;;;7.00;5.07;;;10.90;99.90;;;;;;5011651;28;20281;-66
2024/02/23 06:33:33;;;;;;;5.90;4.80;;;10.90;99.90;;;;;;5008256;28;20198;-66
2024/02/23 06:36:00;;;;;;;6.63;4.40;;;10.90;99.90;;;;;;5005179;28;20203;-67
2024/02/23 06:38:28;;;;;;;5.47;4.10;;;10.90;99.90;;;;;;5009256;28;20228;-66
2024/02/23 06:40:56;;;;;;;6.10;4.60;;;11.00;99.90;;;;;;4994959;28;20634;-67
2024/02/23 06:43:24;;;;;;;4.97;3.80;;;11.00;99.90;;;;;;5009552;28;20557;-67
2024/02/23 06:45:52;;;;;;;5.30;3.83;;;11.00;99.90;;;;;;5005214;28;20683;-66
2024/02/23 06:48:19;;;;;;;4.30;3.90;;;11.10;99.90;;;;;;5011171;28;20191;-66
2024/02/23 06:50:46;;;;;;;6.83;4.33;;;11.10;99.90;;;;;;5013533;28;20683;-67
2024/02/23 06:53:13;;;;;;;4.83;3.37;;;11.10;99.90;;;;;;5012308;28;20221;-66
2024/02/23 06:55:41;;;;;;;5.20;3.40;;;11.20;99.90;;;;;;5000412;28;20194;-67
2024/02/23 06:58:10;;;;;;;3.93;3.23;;;11.20;99.90;;;;;;5006874;28;20229;-66
2024/02/23 07:00:38;;;;;;;4.77;3.67;;;11.20;99.90;;;;;;5005901;28;20197;-67
2024/02/23 07:03:06;;;;;;;3.70;2.90;;;11.20;99.90;;;;;;5016181;28;20315;-66
2024/02/23 07:05:33;;;;;;;7.27;4.10;;;11.20;99.90;;;;;;4995938;28;20235;-66
2024/02/23 07:08:00;;;;;;;4.20;3.53;;;11.20;99.90;;;;;;5009734;28;20313;-67
2024/02/23 07:10:27;;;;;;;4.10;2.97;;;11.20;99.90;;;;;;5006514;28;20242;-66
2024/02/23 07:12:56;;;;;;;5.37;3.80;;;11.20;99.90;;;;;;5012739;28;20207;-66
2024/02/23 07:15:24;;;;;;;3.80;3.37;;;11.30;99.90;;;;;;5004077;28;20206;-66
2024/02/23 07:17:53;;;;;;;3.73;2.97;;;11.30;99.90;;;;;;5011267;28;20198;-66
2024/02/23 07:20:20;;;;;;;4.03;3.10;;;11.30;99.90;;;;;;5009383;28;20204;-67
2024/02/23 07:22:48;;;;;;;3.80;2.97;;;11.30;99.90;;;;;;5005167;28;20285;-66
2024/02/23 07:25:17;;;;;;;3.27;2.97;;;11.30;99.90;;;;;;5005623;28;20217;-67
2024/02/23 07:27:45;;;;;;;3.90;3.17;;;11.40;99.90;;;;;;5012781;28;20264;-67
2024/02/23 07:30:13;;;;;;;3.23;2.83;;;11.40;99.90;;;;;;5008035;28;20283;-67
2024/02/23 07:32:40;;;;;;;4.43;3.00;;;11.40;99.90;;;;;;5012833;28;20196;-67
2024/02/23 07:35:10;;;;;;;5.83;3.53;;;11.40;99.90;;;;;;5001813;28;20244;-66
2024/02/23 07:37:37;;;;;;;3.67;2.90;;;11.50;99.90;;;;;;5015781;28;20719;-66
2024/02/23 07:40:05;;;;;;;2.60;2.40;;;11.40;99.90;;;;;;5007599;28;20211;-66
2024/02/23 07:42:35;;;;;;;5.90;3.33;;;11.50;99.90;;;;;;5011114;28;20406;-66
2024/02/23 07:45:04;;;;;;;3.63;3.03;;;11.50;99.90;;;;;;5007839;28;20216;-66
2024/02/23 07:47:31;;;;;;;4.07;2.77;;;11.60;99.90;;;;;;5015332;28;20198;-66
2024/02/23 07:49:58;;;;;;;3.93;2.50;;;11.60;99.90;;;;;;5011915;28;20194;-66
2024/02/23 07:52:27;;;;;;;5.03;3.30;;;11.70;99.90;;;;;;5009223;28;20237;-66
2024/02/23 07:54:54;;;;;;;5.20;3.40;;;11.70;99.90;;;;;;5008359;28;21113;-66
2024/02/23 07:57:21;;;;;;;3.93;3.00;;;11.70;99.90;;;;;;4991738;28;20206;-66
2024/02/23 07:59:49;;;;;;;3.13;2.30;;;11.70;99.90;;;;;;5008147;28;20207;-67
2024/02/23 08:02:16;;;;;;;3.60;2.30;;;11.70;99.90;;;;;;5000132;28;20264;-66
2024/02/23 08:04:44;;;;;;;3.20;2.70;;;11.70;99.90;;;;;;5014520;28;20237;-66
2024/02/23 08:07:11;;;;;;;2.60;2.40;;;11.80;99.90;;;;;;5019546;28;20209;-66
2024/02/23 08:09:40;;;;;;;2.90;2.20;;;11.80;99.90;;;;;;5010695;28;20195;-66
2024/02/23 08:12:08;;;;;;;2.50;2.23;;;11.80;99.90;;;;;;4990710;28;20188;-66
2024/02/23 08:14:35;;;;;;;3.10;2.80;;;11.80;99.90;;;;;;4997129;28;20235;-67
2024/02/23 08:17:02;;;;;;;2.37;2.07;;;11.80;99.90;;;;;;5007493;28;20730;-67
2024/02/23 08:19:29;;;;;;;3.00;2.30;;;11.90;99.90;;;;;;5009871;28;20636;-67
2024/02/23 08:21:57;;;;;;;1.80;1.70;;;11.90;99.90;;;;;;5009711;28;20203;-66
2024/02/23 08:24:26;;;;;;;2.70;1.90;;;11.90;99.90;;;;;;5005685;28;20823;-67
2024/02/23 08:26:54;;;;;;;1.97;1.57;;;11.90;99.90;;;;;;5006265;28;20288;-66
2024/02/23 08:29:21;;;;;;;3.37;1.50;;;12.00;99.90;;;;;;5007149;28;20199;-66
2024/02/23 08:31:49;;;;;;;1.37;1.27;;;12.00;99.90;;;;;;5014080;28;20629;-67
2024/02/23 08:34:17;;;;;;;1.40;1.30;;;11.90;99.90;;;;;;5005005;28;20190;-66
2024/02/23 08:36:44;;;;;;;2.77;1.50;;;12.00;99.90;;;;;;5007809;28;20209;-66
2024/02/23 08:39:11;;;;;;;2.70;1.43;;;12.00;99.90;;;;;;5005924;28;20206;-67
2024/02/23 08:41:39;;;;;;;1.63;1.43;;;12.00;99.90;;;;;;5009811;28;20245;-66
2024/02/23 08:44:07;;;;;;;1.50;1.40;;;12.00;99.90;;;;;;5011236;28;20201;-66
2024/02/23 08:46:34;;;;;;;1.20;1.10;;;12.10;99.90;;;;;;5006696;28;20293;-66
2024/02/23 08:49:01;;;;;;;2.10;1.27;;;12.10;99.90;;;;;;5012598;28;20206;-66
2024/02/23 08:51:29;;;;;;;1.50;1.10;;;12.10;99.90;;;;;;5007777;28;20272;-66
2024/02/23 08:53:57;;;;;;;1.30;1.10;;;12.10;99.90;;;;;;5009683;28;20772;-66
2024/02/23 08:56:24;;;;;;;2.13;1.77;;;12.10;99.90;;;;;;5003967;28;20226;-66
2024/02/23 08:58:51;;;;;;;4.80;2.20;;;12.10;99.90;;;;;;5020571;28;20214;-65
2024/02/23 09:01:19;;;;;;;1.77;1.40;;;12.10;99.90;;;;;;5007276;28;20257;-65
2024/02/23 09:03:46;;;;;;;1.30;1.20;;;12.10;99.90;;;;;;5018018;28;20245;-65
2024/02/23 09:06:14;;;;;;;1.50;1.30;;;12.10;99.90;;;;;;5005578;28;20205;-65
2024/02/23 09:08:41;;;;;;;1.10;1.00;;;12.10;99.90;;;;;;5010004;28;20679;-66
2024/02/23 09:11:09;;;;;;;1.00;0.90;;;12.10;99.90;;;;;;5010769;28;20670;-65
2024/02/23 09:13:35;;;;;;;1.30;1.20;;;12.10;99.90;;;;;;5012127;28;20223;-66
2024/02/23 09:16:03;;;;;;;0.93;0.90;;;12.10;99.90;;;;;;5007427;28;20262;-66
2024/02/23 09:18:31;;;;;;;1.37;1.10;;;12.10;99.90;;;;;;5010944;28;20191;-65
2024/02/23 09:20:58;;;;;;;1.10;1.00;;;12.10;99.90;;;;;;5012903;28;20275;-66
2024/02/23 09:23:25;;;;;;;0.93;0.90;;;12.10;99.90;;;;;;5001692;28;20203;-65
2024/02/23 09:25:52;;;;;;;1.97;1.10;;;12.10;99.90;;;;;;5011512;28;20206;-65
2024/02/23 09:28:20;;;;;;;1.20;1.00;;;12.10;99.90;;;;;;5007903;28;20568;-65
2024/02/23 09:30:47;;;;;;;1.43;0.97;;;12.10;99.90;;;;;;5015405;28;20195;-66
2024/02/23 09:33:14;;;;;;;1.30;0.90;;;12.20;99.90;;;;;;5012795;28;20254;-66
2024/02/23 09:35:42;;;;;;;1.60;0.87;;;12.20;99.90;;;;;;5015154;28;20218;-65
2024/02/23 09:38:09;;;;;;;2.00;0.87;;;12.20;99.90;;;;;;5018170;28;20214;-66
2024/02/23 09:40:37;;;;;;;3.13;1.27;;;12.20;99.90;;;;;;5012027;28;20685;-66
2024/02/23 09:43:08;;;;;;;0.90;0.90;;;12.20;99.90;;;;;;5009445;28;20208;-65
2024/02/23 09:45:35;;;;;;;2.10;1.07;;;12.30;99.90;;;;;;5006405;28;20298;-66
2024/02/23 09:48:04;;;;;;;1.20;1.10;;;12.30;99.90;;;;;;5016833;28;20712;-65
2024/02/23 09:50:32;;;;;;;1.10;1.00;;;12.30;99.90;;;;;;5010765;28;20199;-66
2024/02/23 09:53:04;;;;;;;3.43;1.20;;;12.30;99.90;;;;;;5024818;28;20198;-66
2024/02/23 09:55:32;;;;;;;2.17;1.30;;;12.30;99.90;;;;;;5012529;28;20183;-66
2024/02/23 09:58:00;;;;;;;1.47;1.20;;;12.30;99.90;;;;;;5013684;28;20218;-66
2024/02/23 10:00:28;;;;;;;1.10;1.00;;;12.30;99.90;;;;;;5014985;28;20203;-66
2024/02/23 10:02:55;;;;;;;0.90;0.90;;;12.40;99.90;;;;;;5013231;28;20198;-66
2024/02/23 10:05:29;;;;;;;1.27;1.13;;;12.40;99.90;;;;;;5004398;28;20239;-66
2024/02/23 10:07:58;;;;;;;3.80;1.67;;;12.40;99.90;;;;;;5013367;28;20671;-66
2024/02/23 10:10:31;;;;;;;1.30;1.20;;;12.40;99.90;;;;;;5006165;28;20203;-66
2024/02/23 10:12:58;;;;;;;1.00;0.83;;;12.40;99.90;;;;;;5020534;28;20283;-65
2024/02/23 10:15:26;;;;;;;4.00;1.40;;;12.40;99.90;;;;;;5015619;28;20195;-66
2024/02/23 10:17:54;;;;;;;1.73;1.50;;;12.40;99.90;;;;;;5012185;28;20230;-65
2024/02/23 10:20:21;;;;;;;1.73;1.50;;;12.40;99.90;;;;;;5006731;28;20227;-66
2024/02/23 10:22:48;;;;;;;0.93;0.90;;;12.40;99.90;;;;;;5005071;28;20293;-66
2024/02/23 10:25:16;;;;;;;2.37;1.00;;;12.40;99.90;;;;;;5015158;28;20239;-67
2024/02/23 10:27:44;;;;;;;0.90;0.90;;;12.40;99.90;;;;;;5026172;28;20273;-68
2024/02/23 10:30:12;;;;;;;1.47;1.10;;;12.50;99.90;;;;;;5016092;28;20223;-67
2024/02/23 10:32:40;;;;;;;1.03;0.97;;;12.50;99.90;;;;;;5010854;28;20231;-67
2024/02/23 10:35:11;;;;;;;3.00;0.80;;;12.50;99.90;;;;;;5014196;28;20334;-67
2024/02/23 10:37:38;;;;;;;1.53;1.00;;;12.50;99.90;;;;;;5010474;28;20192;-67
2024/02/23 10:40:10;;;;;;;2.83;0.70;;;12.50;99.90;;;;;;5010205;28;20526;-66
2024/02/23 10:42:39;;;;;;;2.27;1.10;;;12.50;99.90;;;;;;5013343;28;20298;-66
2024/02/23 10:45:08;;;;;;;2.33;0.90;;;12.50;99.60;;;;;;5019359;28;20287;-67
2024/02/23 10:47:37;;;;;;;1.17;1.07;;;12.60;99.40;;;;;;5008692;28;20211;-67
2024/02/23 10:50:04;;;;;;;1.80;1.10;;;12.60;99.50;;;;;;5010165;28;20281;-67
2024/02/23 10:52:32;;;;;;;2.43;1.07;;;12.60;99.00;;;;;;5017293;28;20198;-67
2024/02/23 10:55:04;;;;;;;1.50;1.00;;;12.70;98.80;;;;;;5011994;28;20206;-66
2024/02/23 10:57:32;;;;;;;1.10;0.70;;;12.80;98.30;;;;;;5008556;28;20204;-66
2024/02/23 10:59:59;;;;;;;1.10;1.00;;;13.00;98.30;;;;;;5020144;28;20190;-67
2024/02/23 11:02:31;;;;;;;1.20;1.10;;;13.10;97.80;;;;;;5011474;28;20220;-66
2024/02/23 11:05:00;;;;;;;1.03;0.80;;;13.30;97.40;;;;;;5018423;28;20293;-67
2024/02/23 11:07:28;;;;;;;0.70;0.70;;;13.50;96.50;;;;;;5007414;28;20548;-67
2024/02/23 11:09:55;;;;;;;0.60;0.60;;;13.60;95.90;;;;;;5017764;28;20203;-66
2024/02/23 11:12:26;;;;;;;2.03;0.87;;;13.80;96.00;;;;;;5013107;28;20201;-66
2024/02/23 11:14:58;;;;;;;1.57;0.80;;;13.70;94.80;;;;;;5007677;28;20254;-67
2024/02/23 11:17:30;;;;;;;0.70;0.70;;;13.60;94.70;;;;;;5011109;28;20196;-66
2024/02/23 11:19:58;;;;;;;1.93;0.70;;;13.50;94.60;;;;;;5007907;28;20195;-67
2024/02/23 11:22:26;;;;;;;0.80;0.70;;;13.40;94.70;;;;;;5006860;28;20288;-67
2024/02/23 11:24:53;;;;;;;0.60;0.60;;;13.30;94.60;;;;;;5019016;28;20200;-66
2024/02/23 11:27:20;;;;;;;1.00;0.77;;;13.20;94.10;;;;;;5003124;28;20732;-66
2024/02/23 11:29:48;;;;;;;0.90;0.90;;;13.10;94.00;;;;;;5021333;28;20202;-66
2024/02/23 11:32:17;;;;;;;1.53;0.83;;;13.00;94.10;;;;;;5008465;28;20695;-67
2024/02/23 11:34:56;;;;;;;1.90;0.87;;;13.00;93.80;;;;;;5016441;28;20204;-66
2024/02/23 11:37:23;;;;;;;0.60;0.60;;;12.90;93.90;;;;;;5006898;28;20223;-66
2024/02/23 11:39:51;;;;;;;0.60;0.60;;;12.90;93.60;;;;;;5015836;28;20200;-67
2024/02/23 11:42:19;;;;;;;1.93;0.87;;;12.90;94.00;;;;;;4990624;28;20246;-67
2024/02/23 11:44:46;;;;;;;1.00;0.90;;;12.90;94.20;;;;;;5011318;28;20242;-67
2024/02/23 11:47:13;;;;;;;1.43;0.90;;;12.90;94.30;;;;;;5015898;28;20203;-67
2024/02/23 11:49:40;;;;;;;1.20;0.90;;;13.00;94.20;;;;;;5006359;28;20263;-66
2024/02/23 11:52:09;;;;;;;2.17;1.00;;;13.00;94.20;;;;;;5008148;28;20959;-66
2024/02/23 11:54:36;;;;;;;0.70;0.70;;;13.00;93.80;;;;;;5017055;28;20228;-66
2024/02/23 11:57:03;;;;;;;2.73;0.83;;;13.00;93.80;;;;;;5009476;28;20196;-67
2024/02/23 11:59:30;;;;;;;0.80;0.80;;;12.90;93.70;;;;;;4993056;28;20248;-67
2024/02/23 12:01:58;;;;;;;1.13;0.90;;;12.90;93.70;;;;;;5011237;28;21113;-67
2024/02/23 12:04:27;;;;;;;0.70;0.70;;;13.00;93.80;;;;;;5014189;28;20232;-67
2024/02/23 12:06:54;;;;;;;0.97;0.70;;;13.00;93.70;;;;;;5006621;28;20757;-67
2024/02/23 12:09:23;;;;;;;0.90;0.90;;;13.10;94.00;;;;;;5006532;28;20196;-66
2024/02/23 12:11:50;;;;;;;0.70;0.70;;;13.10;94.10;;;;;;5008332;28;20200;-67
2024/02/23 12:14:17;;;;;;;1.00;0.87;;;13.20;94.30;;;;;;5004397;28;20261;-67
2024/02/23 12:16:45;;;;;;;0.77;0.77;;;13.30;94.20;;;;;;5007875;28;20259;-66
2024/02/23 12:19:12;;;;;;;0.80;0.70;;;13.50;94.30;;;;;;5011841;28;20208;-66
2024/02/23 12:21:39;;;;;;;0.97;0.90;;;14.00;94.60;;;;;;5004426;28;20193;-66
2024/02/23 12:24:08;;;;;;;1.53;0.53;;;14.40;93.70;;;;;;5012257;28;20228;-66
2024/02/23 12:26:36;;;;;;;1.33;0.80;;;14.80;93.60;;;;;;5008645;28;20221;-66
2024/02/23 12:29:04;;;;;;;1.77;0.70;;;15.00;92.70;;;;;;5006494;28;20261;-66
2024/02/23 12:31:33;;;;;;;0.70;0.70;;;15.10;92.60;;;;;;5005934;28;20203;-66
2024/02/23 12:34:00;;;;;;;0.70;0.70;;;15.10;92.30;;;;;;5007261;28;20547;-66
2024/02/23 12:36:27;;;;;;;0.80;0.80;;;15.10;92.20;;;;;;4992354;28;20525;-66
2024/02/23 12:38:54;;;;;;;1.13;0.80;;;15.00;92.20;;;;;;5009091;28;20260;-66
2024/02/23 12:41:21;;;;;;;0.87;0.87;;;14.90;91.90;;;;;;5011828;28;20196;-66
2024/02/23 12:43:50;;;;;;;1.40;0.70;;;14.90;92.00;;;;;;5005183;28;20622;-66
2024/02/23 12:46:17;;;;;;;1.03;0.80;;;14.80;91.90;;;;;;5009833;28;20217;-66